Time;durP1;ratioP1;P1;durP2;ratioP2;P2;SDS_P1;SDS_P2;PMS_P1;PMS_P2;Temp;Humidity;BMP_temperature;BMP_pressure;BME280_temperature;BME280_humidity;BME280_pressure;Samples;Min_cycle;Max_cycle;Signal;HPM_P1;HPM_P2
2021/12/19 00:10:48;;;;;;;9.65;5.20;;;7.80;99.90;;;;;;5012792;28;20575;-72
2021/12/19 00:13:16;;;;;;;6.20;3.88;;;7.80;99.90;;;;;;5017119;28;20642;-72
2021/12/19 00:15:45;;;;;;;5.57;3.95;;;7.80;99.90;;;;;;5028255;28;20209;-72
2021/12/19 00:18:13;;;;;;;5.50;4.45;;;7.80;99.90;;;;;;5012097;28;20417;-71
2021/12/19 00:20:42;;;;;;;6.55;4.07;;;7.80;99.90;;;;;;5015302;28;20241;-71
2021/12/19 00:23:30;;;;;;;5.80;4.13;;;7.80;99.90;;;;;;5004749;28;20269;-71
2021/12/19 00:25:58;;;;;;;6.20;4.45;;;7.80;99.90;;;;;;5029851;28;20594;-73
2021/12/19 00:28:26;;;;;;;5.05;3.45;;;7.80;99.90;;;;;;5016750;28;20218;-71
2021/12/19 00:30:56;;;;;;;5.85;4.45;;;7.80;99.90;;;;;;5028814;28;20259;-72
2021/12/19 00:33:24;;;;;;;5.47;3.85;;;7.80;99.90;;;;;;5031508;28;20221;-71
2021/12/19 00:35:53;;;;;;;5.50;3.65;;;7.80;99.90;;;;;;5031674;28;20190;-72
2021/12/19 00:38:22;;;;;;;8.05;5.03;;;7.80;99.90;;;;;;5030119;28;20699;-71
2021/12/19 00:40:50;;;;;;;10.13;6.95;;;7.80;99.90;;;;;;5026418;28;20409;-72
2021/12/19 00:43:32;;;;;;;5.03;4.53;;;7.80;99.90;;;;;;5020005;28;20253;-71
2021/12/19 00:46:06;;;;;;;7.53;4.57;;;7.80;99.90;;;;;;5027532;28;20190;-72
2021/12/19 00:48:35;;;;;;;4.43;3.47;;;7.80;99.90;;;;;;5011514;28;20643;-72
2021/12/19 00:51:04;;;;;;;8.27;5.38;;;7.80;99.90;;;;;;5022905;28;20206;-72
2021/12/19 00:53:32;;;;;;;5.68;3.90;;;7.80;99.90;;;;;;5030116;28;20235;-72
2021/12/19 00:56:01;;;;;;;5.25;3.90;;;7.70;99.90;;;;;;5030554;28;20194;-72
2021/12/19 00:58:29;;;;;;;6.15;4.25;;;7.80;99.90;;;;;;5028062;28;20220;-72
2021/12/19 01:00:58;;;;;;;6.38;5.07;;;7.80;99.90;;;;;;5030304;28;20233;-70
2021/12/19 01:03:28;;;;;;;4.93;4.05;;;7.80;99.90;;;;;;5010696;28;20276;-71
2021/12/19 01:05:56;;;;;;;6.40;4.97;;;7.70;99.90;;;;;;5013404;28;20190;-72
2021/12/19 01:08:25;;;;;;;8.30;7.20;;;7.80;99.90;;;;;;5030341;28;20236;-73
2021/12/19 01:10:53;;;;;;;10.27;6.82;;;7.70;99.90;;;;;;5031319;28;20215;-71
2021/12/19 01:13:21;;;;;;;9.63;6.95;;;7.80;99.90;;;;;;5025100;28;20591;-71
2021/12/19 01:15:51;;;;;;;7.90;4.85;;;7.70;99.90;;;;;;5028503;28;20293;-72
2021/12/19 01:18:19;;;;;;;9.13;6.72;;;7.80;99.90;;;;;;5017182;28;20588;-70
2021/12/19 01:20:49;;;;;;;7.18;4.47;;;7.80;99.90;;;;;;5010549;28;20584;-72
2021/12/19 01:23:17;;;;;;;8.18;5.53;;;7.70;99.90;;;;;;5014820;28;20244;-71
2021/12/19 01:25:47;;;;;;;6.90;4.90;;;7.70;99.90;;;;;;5030163;28;20190;-73
2021/12/19 01:28:15;;;;;;;6.20;4.97;;;7.70;99.90;;;;;;5030283;28;20446;-72
2021/12/19 01:30:43;;;;;;;6.20;4.60;;;7.70;99.90;;;;;;5012876;28;20621;-70
2021/12/19 01:33:12;;;;;;;5.60;4.13;;;7.70;99.90;;;;;;5009772;28;20221;-72
2021/12/19 01:35:40;;;;;;;8.63;6.15;;;7.70;99.90;;;;;;5019112;28;20207;-72
2021/12/19 01:38:09;;;;;;;6.57;4.70;;;7.70;99.90;;;;;;5018531;28;20679;-72
2021/12/19 01:40:37;;;;;;;6.68;5.03;;;7.70;99.90;;;;;;5019336;28;20632;-72
2021/12/19 01:43:06;;;;;;;7.60;4.40;;;7.80;99.90;;;;;;5022189;28;20680;-71
2021/12/19 01:45:36;;;;;;;6.32;4.45;;;7.70;99.90;;;;;;5022856;28;20190;-73
2021/12/19 01:48:06;;;;;;;8.27;5.38;;;7.70;99.90;;;;;;5027434;28;20190;-73
2021/12/19 01:50:34;;;;;;;7.30;5.50;;;7.70;99.90;;;;;;5018086;28;20209;-72
2021/12/19 01:53:05;;;;;;;7.10;4.93;;;7.70;99.90;;;;;;5002349;28;20205;-71
2021/12/19 01:55:35;;;;;;;6.60;5.03;;;7.70;99.90;;;;;;5017938;28;20247;-73
2021/12/19 01:58:03;;;;;;;6.78;5.78;;;7.70;99.90;;;;;;5031718;28;20207;-73
2021/12/19 02:00:34;;;;;;;6.28;4.50;;;7.70;99.90;;;;;;5033268;28;20219;-71
2021/12/19 02:03:03;;;;;;;9.48;5.18;;;7.70;99.90;;;;;;5015516;28;20187;-72
2021/12/19 02:05:31;;;;;;;7.82;5.47;;;7.70;99.90;;;;;;5018889;28;20199;-72
2021/12/19 02:08:01;;;;;;;8.85;6.35;;;7.70;99.90;;;;;;5030201;28;20893;-72
2021/12/19 02:10:31;;;;;;;5.78;4.20;;;7.70;99.90;;;;;;5027088;28;20238;-71
2021/12/19 02:13:03;;;;;;;7.13;5.40;;;7.70;99.90;;;;;;5013955;28;20195;-70
2021/12/19 02:15:33;;;;;;;5.65;4.53;;;7.70;99.90;;;;;;5029128;28;20672;-73
2021/12/19 02:18:04;;;;;;;6.70;5.13;;;7.70;99.90;;;;;;5017444;28;20652;-73
2021/12/19 02:20:36;;;;;;;8.00;4.72;;;7.70;99.90;;;;;;5021316;28;20608;-72
2021/12/19 02:23:04;;;;;;;6.90;4.70;;;7.70;99.90;;;;;;5025944;28;20243;-71
2021/12/19 02:25:33;;;;;;;5.75;4.18;;;7.70;99.90;;;;;;5028101;28;20190;-72
2021/12/19 02:28:02;;;;;;;7.72;4.90;;;7.70;99.90;;;;;;5004869;28;20245;-73
2021/12/19 02:30:30;;;;;;;5.68;4.43;;;7.70;99.90;;;;;;5035015;28;20276;-71
2021/12/19 02:32:58;;;;;;;9.40;6.28;;;7.70;99.90;;;;;;5016027;28;20210;-72
2021/12/19 02:35:31;;;;;;;8.07;4.93;;;7.70;99.90;;;;;;5033042;28;20224;-72
2021/12/19 02:49:22;;;;;;;7.20;4.85;;;7.70;99.90;;;;;;5013115;28;20226;-72
2021/12/19 02:51:51;;;;;;;7.70;5.15;;;7.70;99.90;;;;;;5012301;28;20663;-71
2021/12/19 02:54:21;;;;;;;5.13;4.47;;;7.70;99.90;;;;;;5026093;28;20220;-70
2021/12/19 02:56:50;;;;;;;6.20;4.55;;;7.70;99.90;;;;;;5022446;28;20693;-73
2021/12/19 02:59:19;;;;;;;8.25;4.25;;;7.70;99.90;;;;;;5016761;28;20215;-72
2021/12/19 03:01:47;;;;;;;5.22;4.43;;;7.70;99.90;;;;;;5031861;28;20232;-72
2021/12/19 03:04:16;;;;;;;6.35;4.72;;;7.70;99.90;;;;;;5032685;28;20686;-72
2021/12/19 03:06:46;;;;;;;4.72;3.80;;;7.70;99.90;;;;;;5032647;28;20647;-73
2021/12/19 03:09:19;;;;;;;6.05;4.32;;;7.70;99.90;;;;;;5013566;28;20259;-72
2021/12/19 03:20:07;;;;;;;5.82;4.88;;;7.70;99.90;;;;;;5015914;28;20786;-71
2021/12/19 03:22:35;;;;;;;5.28;4.30;;;7.70;99.90;;;;;;5046397;28;20193;-72
2021/12/19 03:25:04;;;;;;;6.25;4.10;;;7.70;99.90;;;;;;5031293;28;20716;-72
2021/12/19 03:27:33;;;;;;;7.22;4.78;;;7.70;99.90;;;;;;5011573;28;20189;-72
2021/12/19 03:30:01;;;;;;;6.75;4.15;;;7.70;99.90;;;;;;5027909;28;20249;-71
2021/12/19 03:32:29;;;;;;;7.32;4.85;;;7.70;99.90;;;;;;5015018;28;20221;-70
2021/12/19 03:34:58;;;;;;;6.68;4.80;;;7.70;99.90;;;;;;5039791;28;20319;-70
2021/12/19 03:37:26;;;;;;;5.72;4.40;;;7.70;99.90;;;;;;5021146;28;20586;-73
2021/12/19 03:40:07;;;;;;;6.70;4.10;;;7.70;99.90;;;;;;5021357;28;20221;-72
2021/12/19 03:42:39;;;;;;;5.95;4.40;;;7.70;99.90;;;;;;5015167;28;20228;-72
2021/12/19 03:45:10;;;;;;;5.88;4.30;;;7.70;99.90;;;;;;5023315;28;20675;-72
2021/12/19 03:47:39;;;;;;;5.70;4.05;;;7.70;99.90;;;;;;5032267;28;20194;-74
2021/12/19 03:50:11;;;;;;;5.32;3.97;;;7.70;99.90;;;;;;5022591;28;20257;-72
2021/12/19 03:52:39;;;;;;;5.68;4.50;;;7.70;99.90;;;;;;5038468;28;20221;-72
2021/12/19 03:55:09;;;;;;;8.57;4.80;;;7.70;99.90;;;;;;5023962;28;20213;-71
2021/12/19 03:57:38;;;;;;;5.70;4.20;;;7.70;99.90;;;;;;5016580;28;20194;-72
2021/12/19 04:00:10;;;;;;;6.13;4.80;;;7.70;99.90;;;;;;5022839;28;20270;-72
2021/12/19 04:02:38;;;;;;;6.63;3.95;;;7.70;99.90;;;;;;5029323;28;20218;-72
2021/12/19 04:05:08;;;;;;;6.30;4.28;;;7.70;99.90;;;;;;5030838;28;20299;-72
2021/12/19 04:07:36;;;;;;;5.30;3.92;;;7.70;99.90;;;;;;5016697;28;20260;-73
2021/12/19 04:10:05;;;;;;;5.57;4.15;;;7.70;99.90;;;;;;5015010;28;20214;-72
2021/12/19 04:12:33;;;;;;;6.40;4.40;;;7.70;99.90;;;;;;5032194;28;20190;-72
2021/12/19 04:15:03;;;;;;;6.10;3.85;;;7.70;99.90;;;;;;5030936;28;20231;-70
2021/12/19 04:17:31;;;;;;;6.15;4.88;;;7.70;99.90;;;;;;5017877;28;20202;-73
2021/12/19 04:19:59;;;;;;;6.40;4.05;;;7.70;99.90;;;;;;5013273;28;20290;-72
2021/12/19 04:22:27;;;;;;;4.65;3.55;;;7.70;99.90;;;;;;5046617;28;20214;-72
2021/12/19 04:24:55;;;;;;;4.82;3.92;;;7.70;99.90;;;;;;5030451;28;20218;-72
2021/12/19 04:27:24;;;;;;;5.35;3.80;;;7.70;99.90;;;;;;5025780;28;20187;-72
2021/12/19 04:29:53;;;;;;;5.40;4.05;;;7.70;99.90;;;;;;5020725;28;20290;-72
2021/12/19 04:32:26;;;;;;;7.18;4.90;;;7.70;99.90;;;;;;5014276;28;20187;-71
2021/12/19 04:34:54;;;;;;;5.65;4.03;;;7.70;99.90;;;;;;5021344;28;20231;-72
2021/12/19 04:37:47;;;;;;;5.47;3.67;;;7.70;99.90;;;;;;5011918;28;20254;-72
2021/12/19 04:40:17;;;;;;;5.47;4.13;;;7.70;99.90;;;;;;5023065;28;20218;-71
2021/12/19 04:43:49;;;;;;;5.43;4.18;;;7.70;99.90;;;;;;5013646;28;20247;-72
2021/12/19 04:51:57;;;;;;;5.10;3.83;;;7.70;99.90;;;;;;5026522;28;20773;-72
2021/12/19 04:54:35;;;;;;;5.30;3.72;;;7.70;99.90;;;;;;5017382;28;20282;-71
2021/12/19 04:57:20;;;;;;;5.28;3.90;;;7.70;99.90;;;;;;5013882;28;20196;-73
2021/12/19 04:59:53;;;;;;;6.10;4.00;;;7.70;99.90;;;;;;5014964;28;20704;-73
2021/12/19 05:02:37;;;;;;;6.60;4.20;;;7.70;99.90;;;;;;5018199;28;20234;-72
2021/12/19 05:16:12;;;;;;;6.43;4.40;;;7.70;99.90;;;;;;5023554;28;20204;-73
2021/12/19 05:18:43;;;;;;;7.68;4.10;;;7.70;99.90;;;;;;5051781;28;20248;-72
2021/12/19 05:21:17;;;;;;;4.50;3.05;;;7.70;99.90;;;;;;5025697;28;20229;-72
2021/12/19 05:26:43;;;;;;;4.78;3.50;;;7.70;99.90;;;;;;5013410;28;20203;-72
2021/12/19 05:29:15;;;;;;;5.00;3.88;;;7.70;99.90;;;;;;5034896;28;20761;-73
2021/12/19 05:31:43;;;;;;;5.70;3.80;;;7.70;99.90;;;;;;5043619;28;20296;-71
2021/12/19 05:34:12;;;;;;;4.88;4.25;;;7.70;99.90;;;;;;5046537;28;20708;-72
2021/12/19 05:45:13;;;;;;;4.68;4.00;;;7.60;99.90;;;;;;5061258;28;20219;-71
2021/12/19 05:47:43;;;;;;;6.60;4.30;;;7.70;99.90;;;;;;5055035;28;20626;-73
2021/12/19 05:50:12;;;;;;;7.18;4.10;;;7.70;99.90;;;;;;5020182;28;20223;-73
2021/12/19 05:52:43;;;;;;;4.00;3.60;;;7.70;99.90;;;;;;5052105;28;20214;-70
2021/12/19 05:55:11;;;;;;;4.70;3.80;;;7.70;99.90;;;;;;5041930;28;20586;-72
2021/12/19 05:57:39;;;;;;;4.40;3.38;;;7.70;99.90;;;;;;5034276;28;20716;-73
2021/12/19 06:00:12;;;;;;;5.25;4.45;;;7.70;99.90;;;;;;5053250;28;20224;-73
2021/12/19 06:02:41;;;;;;;6.10;4.50;;;7.70;99.90;;;;;;5053738;28;20262;-71
2021/12/19 06:05:12;;;;;;;5.90;4.28;;;7.70;99.90;;;;;;5046502;28;20206;-72
2021/12/19 06:07:42;;;;;;;4.40;3.90;;;7.60;99.90;;;;;;5053828;28;20207;-73
2021/12/19 06:10:12;;;;;;;6.07;3.47;;;7.60;99.90;;;;;;5034626;28;20687;-73
2021/12/19 06:12:41;;;;;;;4.70;3.20;;;7.70;99.90;;;;;;5034762;28;20567;-71
2021/12/19 06:15:11;;;;;;;4.80;3.70;;;7.60;99.90;;;;;;5037467;28;20323;-71
2021/12/19 06:17:40;;;;;;;4.20;3.28;;;7.70;99.90;;;;;;5050009;28;20192;-72
2021/12/19 06:20:10;;;;;;;4.72;3.22;;;7.60;99.90;;;;;;5045753;28;20213;-73
2021/12/19 06:22:38;;;;;;;6.90;4.30;;;7.70;99.90;;;;;;5044254;28;20779;-71
2021/12/19 06:25:09;;;;;;;4.18;3.40;;;7.60;99.90;;;;;;5036716;28;20212;-72
2021/12/19 06:27:37;;;;;;;5.47;3.38;;;7.70;99.90;;;;;;5053446;28;20193;-73
2021/12/19 06:30:07;;;;;;;5.93;3.70;;;7.60;99.90;;;;;;5050657;28;20208;-73
2021/12/19 06:32:37;;;;;;;5.15;3.58;;;7.70;99.90;;;;;;5045549;28;20194;-72
2021/12/19 06:35:10;;;;;;;5.30;3.88;;;7.70;99.90;;;;;;5018486;28;20751;-72
2021/12/19 06:37:39;;;;;;;5.60;3.67;;;7.60;99.90;;;;;;5051072;28;20279;-73
2021/12/19 06:40:11;;;;;;;4.82;3.80;;;7.60;99.90;;;;;;5041005;28;20229;-73
2021/12/19 06:42:39;;;;;;;6.15;3.50;;;7.60;99.90;;;;;;5041819;28;20233;-71
2021/12/19 06:45:09;;;;;;;4.32;3.92;;;7.60;99.90;;;;;;5043887;28;20216;-72
2021/12/19 06:47:37;;;;;;;4.13;3.42;;;7.60;99.90;;;;;;5038413;28;20195;-73
2021/12/19 06:50:07;;;;;;;5.80;3.97;;;7.60;99.90;;;;;;5052598;28;20232;-72
2021/12/19 06:52:35;;;;;;;4.13;3.20;;;7.60;99.90;;;;;;5043279;28;20185;-71
2021/12/19 06:55:04;;;;;;;5.22;3.63;;;7.60;99.90;;;;;;5031968;28;20731;-71
2021/12/19 06:57:34;;;;;;;4.22;3.33;;;7.60;99.90;;;;;;5033674;28;20201;-73
2021/12/19 07:00:04;;;;;;;3.47;2.60;;;7.60;99.90;;;;;;5043523;28;20228;-73
2021/12/19 07:02:33;;;;;;;3.83;3.33;;;7.70;99.90;;;;;;5037968;28;20254;-72
2021/12/19 07:05:01;;;;;;;7.15;3.50;;;7.60;99.90;;;;;;5042910;28;20585;-72
2021/12/19 07:07:30;;;;;;;3.85;3.30;;;7.60;99.90;;;;;;5035106;28;20624;-73
2021/12/19 07:09:59;;;;;;;6.88;4.20;;;7.60;99.90;;;;;;5039310;28;20226;-72
2021/12/19 07:12:27;;;;;;;4.57;3.20;;;7.60;99.90;;;;;;5047199;28;20616;-72
2021/12/19 07:14:57;;;;;;;5.10;3.35;;;7.60;99.90;;;;;;5043592;28;20236;-72
2021/12/19 07:17:26;;;;;;;6.30;4.18;;;7.60;99.90;;;;;;5032425;28;20595;-73
2021/12/19 07:19:54;;;;;;;5.53;3.58;;;7.60;99.90;;;;;;5046831;28;20592;-73
2021/12/19 07:22:22;;;;;;;3.47;3.00;;;7.60;99.90;;;;;;5053220;28;20204;-72
2021/12/19 07:24:50;;;;;;;3.65;3.28;;;7.60;99.90;;;;;;5039691;28;20264;-72
2021/12/19 07:27:19;;;;;;;4.90;3.30;;;7.60;99.90;;;;;;5046529;28;20200;-72
2021/12/19 07:29:47;;;;;;;4.45;3.20;;;7.60;99.90;;;;;;5035580;28;20218;-71
2021/12/19 07:32:17;;;;;;;4.55;3.10;;;7.70;99.90;;;;;;5031542;28;20189;-72
2021/12/19 07:34:47;;;;;;;3.25;2.25;;;7.60;99.90;;;;;;5047622;28;20212;-70
2021/12/19 07:37:18;;;;;;;4.72;3.25;;;7.60;99.90;;;;;;5052429;28;20668;-73
2021/12/19 07:39:54;;;;;;;3.35;3.03;;;7.60;99.90;;;;;;5051590;28;20299;-72
2021/12/19 07:42:22;;;;;;;4.10;3.35;;;7.60;99.90;;;;;;5033694;28;20193;-72
2021/12/19 07:44:51;;;;;;;5.45;3.50;;;7.60;99.90;;;;;;5025855;28;20308;-71
2021/12/19 07:47:21;;;;;;;3.30;2.75;;;7.60;99.90;;;;;;5039708;28;20197;-72
2021/12/19 07:49:49;;;;;;;4.82;3.30;;;7.60;99.90;;;;;;5042606;28;20287;-73
2021/12/19 07:52:17;;;;;;;3.80;3.15;;;7.60;99.90;;;;;;5052585;28;20262;-72
2021/12/19 07:54:45;;;;;;;4.28;2.80;;;7.60;99.90;;;;;;5033060;28;20308;-72
2021/12/19 07:57:14;;;;;;;4.40;3.35;;;7.60;99.90;;;;;;5036682;28;20665;-72
2021/12/19 07:59:42;;;;;;;3.55;2.50;;;7.60;99.90;;;;;;5041689;28;20715;-72
2021/12/19 08:02:10;;;;;;;3.70;3.05;;;7.60;99.90;;;;;;5032614;28;20188;-73
2021/12/19 08:04:40;;;;;;;3.20;2.90;;;7.60;99.90;;;;;;5030744;28;20225;-72
2021/12/19 08:07:11;;;;;;;5.65;3.60;;;7.60;99.90;;;;;;5032764;28;20209;-72
2021/12/19 08:09:56;;;;;;;5.10;2.80;;;7.60;99.90;;;;;;5035200;28;20221;-72
2021/12/19 08:12:24;;;;;;;4.28;2.80;;;7.60;99.90;;;;;;5037850;28;20681;-72
2021/12/19 08:14:53;;;;;;;3.90;3.03;;;7.60;99.90;;;;;;5032885;28;20676;-72
2021/12/19 08:17:22;;;;;;;4.38;3.42;;;7.60;99.90;;;;;;5052212;28;20192;-72
2021/12/19 08:19:51;;;;;;;3.40;2.55;;;7.60;99.90;;;;;;5033918;28;20642;-73
2021/12/19 08:22:20;;;;;;;6.10;3.63;;;7.60;99.90;;;;;;5037967;28;20714;-72
2021/12/19 08:24:50;;;;;;;3.70;2.80;;;7.60;99.90;;;;;;5035550;28;20226;-72
2021/12/19 08:27:18;;;;;;;4.30;3.03;;;7.60;99.90;;;;;;5029924;28;20220;-72
2021/12/19 08:29:47;;;;;;;3.83;3.05;;;7.60;99.90;;;;;;5025064;28;20221;-72
2021/12/19 08:32:15;;;;;;;3.67;2.47;;;7.60;99.90;;;;;;5036112;28;20212;-73
2021/12/19 08:34:43;;;;;;;2.65;2.42;;;7.60;99.90;;;;;;5050361;28;20212;-72
2021/12/19 08:37:15;;;;;;;4.53;3.13;;;7.60;99.90;;;;;;5036113;28;20533;-72
2021/12/19 08:39:44;;;;;;;3.50;3.10;;;7.60;99.90;;;;;;5043082;28;20230;-73
2021/12/19 08:42:12;;;;;;;4.13;3.22;;;7.60;99.90;;;;;;5043914;28;20182;-74
2021/12/19 08:44:41;;;;;;;3.92;2.72;;;7.60;99.90;;;;;;5028562;28;20232;-72
2021/12/19 08:47:12;;;;;;;4.32;2.95;;;7.60;99.90;;;;;;5030768;28;20185;-72
2021/12/19 08:49:40;;;;;;;3.30;2.88;;;7.60;99.90;;;;;;5031206;28;20332;-73
2021/12/19 08:52:10;;;;;;;4.80;3.28;;;7.60;99.90;;;;;;5051353;28;20653;-73
2021/12/19 08:54:40;;;;;;;3.90;2.53;;;7.60;99.90;;;;;;5057585;28;20695;-73
2021/12/19 08:57:08;;;;;;;3.42;2.50;;;7.60;99.90;;;;;;5051019;28;20692;-73
2021/12/19 08:59:36;;;;;;;4.18;2.83;;;7.60;99.90;;;;;;5061505;28;20228;-72
2021/12/19 09:02:04;;;;;;;4.28;3.00;;;7.60;99.90;;;;;;5040496;28;20559;-73
2021/12/19 09:04:32;;;;;;;2.92;2.28;;;7.60;99.90;;;;;;5046026;28;20220;-72
2021/12/19 09:07:01;;;;;;;3.15;2.85;;;7.60;99.90;;;;;;5052001;28;20211;-72
2021/12/19 09:09:29;;;;;;;3.42;2.72;;;7.60;99.90;;;;;;5048555;28;20680;-73
2021/12/19 09:11:59;;;;;;;4.00;3.22;;;7.60;99.90;;;;;;5035499;28;20555;-72
2021/12/19 09:14:27;;;;;;;3.70;2.20;;;7.60;99.90;;;;;;5048613;28;20215;-73
2021/12/19 09:16:55;;;;;;;3.72;2.65;;;7.60;99.90;;;;;;5037016;28;20202;-72
2021/12/19 09:19:25;;;;;;;3.65;2.55;;;7.60;99.90;;;;;;5036980;28;20246;-72
2021/12/19 09:21:53;;;;;;;3.08;2.30;;;7.60;99.90;;;;;;5054667;28;20546;-73
2021/12/19 09:24:21;;;;;;;3.03;2.60;;;7.60;99.90;;;;;;5054412;28;20276;-73
2021/12/19 09:26:50;;;;;;;2.72;2.33;;;7.60;99.90;;;;;;5054377;28;20322;-72
2021/12/19 09:29:19;;;;;;;2.80;2.42;;;7.60;99.90;;;;;;5054247;28;20219;-72
2021/12/19 09:31:48;;;;;;;3.45;2.25;;;7.60;99.90;;;;;;5046427;28;20260;-72
2021/12/19 09:34:16;;;;;;;4.55;3.47;;;7.60;99.90;;;;;;5034874;28;20222;-73
2021/12/19 09:36:44;;;;;;;3.25;2.25;;;7.60;99.90;;;;;;5038323;28;20550;-73
2021/12/19 09:39:12;;;;;;;3.00;2.15;;;7.60;99.90;;;;;;5039610;28;20267;-73
2021/12/19 09:41:44;;;;;;;2.55;2.20;;;7.60;99.90;;;;;;5053814;28;20249;-72
2021/12/19 09:44:15;;;;;;;3.47;2.75;;;7.60;99.90;;;;;;5046214;28;20220;-73
2021/12/19 09:46:46;;;;;;;2.85;2.15;;;7.60;99.90;;;;;;5038488;28;20194;-72
2021/12/19 09:49:16;;;;;;;4.55;2.70;;;7.60;99.90;;;;;;5046812;28;20609;-72
2021/12/19 09:51:45;;;;;;;4.00;2.30;;;7.60;99.90;;;;;;5054117;28;20238;-72
2021/12/19 09:54:14;;;;;;;3.03;2.60;;;7.60;99.90;;;;;;5035817;28;20220;-72
2021/12/19 09:56:44;;;;;;;3.60;2.20;;;7.60;99.90;;;;;;5038410;28;20193;-73
2021/12/19 09:59:14;;;;;;;4.03;2.80;;;7.60;99.90;;;;;;5048362;28;20217;-72
2021/12/19 10:01:43;;;;;;;2.90;2.65;;;7.60;99.90;;;;;;5053776;28;20215;-72
2021/12/19 10:04:34;;;;;;;3.03;2.40;;;7.60;99.90;;;;;;5048497;28;20244;-72
2021/12/19 10:07:09;;;;;;;3.17;2.88;;;7.60;99.90;;;;;;5035018;28;20201;-72
2021/12/19 10:09:42;;;;;;;2.72;2.53;;;7.60;99.90;;;;;;5035471;28;20208;-73
2021/12/19 10:12:36;;;;;;;3.15;2.60;;;7.60;99.90;;;;;;5019706;28;20277;-73
2021/12/19 10:15:08;;;;;;;2.42;2.03;;;7.60;99.90;;;;;;5052374;28;20214;-72
2021/12/19 10:17:37;;;;;;;2.33;1.95;;;7.60;99.90;;;;;;5053993;28;20192;-73
2021/12/19 10:20:10;;;;;;;2.63;2.42;;;7.60;99.90;;;;;;5036942;28;20221;-73
2021/12/19 10:22:40;;;;;;;3.08;2.08;;;7.60;99.90;;;;;;5034607;28;20276;-73
2021/12/19 10:25:19;;;;;;;2.60;1.80;;;7.60;99.90;;;;;;5032767;28;20235;-73
2021/12/19 10:27:50;;;;;;;2.55;2.08;;;7.60;99.90;;;;;;5039598;28;20189;-73
2021/12/19 10:30:22;;;;;;;3.22;2.28;;;7.60;99.90;;;;;;5053079;28;20653;-72
2021/12/19 10:32:59;;;;;;;3.00;2.30;;;7.60;99.90;;;;;;5054017;28;20181;-72
2021/12/19 10:35:32;;;;;;;2.58;1.85;;;7.60;99.90;;;;;;5036411;28;20551;-73
2021/12/19 10:38:02;;;;;;;3.13;2.10;;;7.60;99.90;;;;;;5035982;28;20194;-72
2021/12/19 10:40:31;;;;;;;3.08;2.10;;;7.60;99.90;;;;;;5032363;28;20759;-72
2021/12/19 10:43:02;;;;;;;3.15;2.38;;;7.60;99.90;;;;;;5052023;28;20559;-71
2021/12/19 10:45:33;;;;;;;2.35;2.05;;;7.60;99.90;;;;;;5049092;28;20211;-72
2021/12/19 10:48:18;;;;;;;3.13;2.30;;;7.60;99.90;;;;;;5042892;28;20288;-73
2021/12/19 10:50:54;;;;;;;3.20;2.30;;;7.60;99.90;;;;;;5041777;28;20220;-72
2021/12/19 10:53:26;;;;;;;3.03;2.55;;;7.60;99.90;;;;;;5023598;28;20305;-72
2021/12/19 10:55:55;;;;;;;2.20;2.00;;;7.60;99.90;;;;;;5035312;28;20181;-72
2021/12/19 10:58:27;;;;;;;2.63;2.05;;;7.60;99.90;;;;;;5029248;28;20229;-72
2021/12/19 11:01:04;;;;;;;4.30;1.90;;;7.60;99.90;;;;;;5053289;28;20220;-74
2021/12/19 11:03:52;;;;;;;3.20;2.03;;;7.60;99.90;;;;;;5034606;28;20259;-72
2021/12/19 11:06:36;;;;;;;2.80;1.88;;;7.60;99.90;;;;;;5037051;28;20240;-72
2021/12/19 11:09:11;;;;;;;2.40;1.65;;;7.60;99.90;;;;;;5043927;28;20216;-72
2021/12/19 11:11:43;;;;;;;3.22;2.33;;;7.60;99.90;;;;;;5040059;28;20214;-72
2021/12/19 11:14:13;;;;;;;2.50;2.30;;;7.60;99.90;;;;;;5036292;28;20302;-74
2021/12/19 11:16:43;;;;;;;2.30;1.83;;;7.60;99.90;;;;;;5023439;28;20205;-73
2021/12/19 11:19:12;;;;;;;2.70;2.00;;;7.60;99.90;;;;;;5041428;28;20626;-72
2021/12/19 11:21:42;;;;;;;2.47;2.05;;;7.60;99.90;;;;;;5045235;28;20482;-72
2021/12/19 11:24:13;;;;;;;2.85;1.80;;;7.60;99.90;;;;;;5051269;28;20226;-73
2021/12/19 11:26:43;;;;;;;2.13;1.90;;;7.60;99.90;;;;;;5047265;28;20191;-74
2021/12/19 11:29:12;;;;;;;3.30;1.92;;;7.60;99.90;;;;;;5033051;28;20214;-72
2021/12/19 11:31:45;;;;;;;2.95;2.53;;;7.60;99.90;;;;;;5040717;28;20298;-72
2021/12/19 11:34:22;;;;;;;3.05;2.30;;;7.60;99.90;;;;;;5043670;28;20315;-73
2021/12/19 11:37:01;;;;;;;3.45;2.35;;;7.60;99.90;;;;;;5051971;28;20607;-73
2021/12/19 11:39:34;;;;;;;2.78;2.58;;;7.60;99.90;;;;;;5032589;28;20559;-72
2021/12/19 11:42:11;;;;;;;2.08;1.30;;;7.60;99.90;;;;;;5031927;28;20217;-72
2021/12/19 11:44:48;;;;;;;2.53;2.25;;;7.60;99.90;;;;;;5032752;28;20222;-72
2021/12/19 11:47:37;;;;;;;2.92;2.15;;;7.60;99.90;;;;;;5031335;28;20194;-72
2021/12/19 11:50:18;;;;;;;1.98;1.50;;;7.60;99.90;;;;;;5032534;28;20217;-73
2021/12/19 11:52:51;;;;;;;3.28;2.15;;;7.60;99.90;;;;;;5036376;28;20193;-73
2021/12/19 11:55:23;;;;;;;3.58;2.22;;;7.60;99.90;;;;;;5036920;28;20219;-73
2021/12/19 11:58:17;;;;;;;2.55;2.15;;;7.60;99.90;;;;;;5052659;28;20215;-72
2021/12/19 12:00:50;;;;;;;3.03;1.83;;;7.60;99.90;;;;;;5023024;28;20279;-72
2021/12/19 12:03:26;;;;;;;2.78;2.22;;;7.60;99.90;;;;;;5048822;28;20219;-72
2021/12/19 12:06:32;;;;;;;1.60;1.27;;;7.60;99.90;;;;;;5040215;28;20205;-73
2021/12/19 12:09:24;;;;;;;3.65;2.20;;;7.60;99.90;;;;;;5039687;28;20221;-72
2021/12/19 12:12:14;;;;;;;2.85;2.15;;;7.60;99.90;;;;;;5019509;28;20193;-72
2021/12/19 12:14:56;;;;;;;3.58;2.33;;;7.60;99.90;;;;;;5043762;28;20220;-73
2021/12/19 12:17:33;;;;;;;4.63;1.85;;;7.60;99.90;;;;;;5030628;28;20189;-72
2021/12/19 12:20:18;;;;;;;3.10;2.13;;;7.60;99.90;;;;;;5030445;28;20231;-73
2021/12/19 12:23:08;;;;;;;1.92;1.70;;;7.60;99.90;;;;;;5040605;28;20190;-73
2021/12/19 12:25:42;;;;;;;2.60;2.20;;;7.60;99.90;;;;;;5043089;28;20600;-73
2021/12/19 12:28:16;;;;;;;2.55;1.77;;;7.60;99.90;;;;;;5037691;28;20188;-72
2021/12/19 12:30:46;;;;;;;2.05;1.70;;;7.60;99.90;;;;;;5027269;28;20685;-73
2021/12/19 12:33:16;;;;;;;3.03;2.00;;;7.60;99.90;;;;;;5031182;28;20208;-72
2021/12/19 12:35:47;;;;;;;2.35;2.00;;;7.60;99.90;;;;;;5044032;28;20275;-72
2021/12/19 12:38:17;;;;;;;2.63;2.15;;;7.60;99.90;;;;;;5022994;28;20204;-72
2021/12/19 12:40:53;;;;;;;2.03;1.80;;;7.60;99.90;;;;;;5040188;28;20356;-72
2021/12/19 12:43:23;;;;;;;2.00;1.80;;;7.60;99.90;;;;;;5040020;28;20281;-72
2021/12/19 12:46:06;;;;;;;3.65;2.42;;;7.60;99.90;;;;;;5040489;28;20205;-72
2021/12/19 12:48:53;;;;;;;3.03;2.05;;;7.60;99.90;;;;;;5033309;28;20515;-72
2021/12/19 12:51:27;;;;;;;3.20;2.25;;;7.60;99.90;;;;;;5020555;28;20548;-72
2021/12/19 12:53:58;;;;;;;3.20;2.15;;;7.60;99.90;;;;;;5047651;28;20221;-72
2021/12/19 12:56:33;;;;;;;2.83;2.13;;;7.60;99.90;;;;;;5052118;28;20250;-74
2021/12/19 12:59:02;;;;;;;2.72;1.88;;;7.60;99.90;;;;;;5050330;28;20217;-72
2021/12/19 13:01:35;;;;;;;3.40;2.10;;;7.60;99.90;;;;;;5051811;28;20208;-72
2021/12/19 13:04:21;;;;;;;3.33;2.50;;;7.60;99.90;;;;;;5049717;28;20227;-73
2021/12/19 13:06:55;;;;;;;2.35;2.08;;;7.60;99.90;;;;;;5052145;28;20584;-72
2021/12/19 13:09:27;;;;;;;3.83;3.15;;;7.60;99.90;;;;;;5046412;28;20209;-71
2021/12/19 13:12:01;;;;;;;2.38;1.92;;;7.60;99.90;;;;;;5051718;28;20808;-73
2021/12/19 13:14:31;;;;;;;2.83;2.30;;;7.60;99.90;;;;;;5044508;28;20218;-73
2021/12/19 13:17:02;;;;;;;3.55;2.30;;;7.60;99.90;;;;;;5044796;28;20198;-72
2021/12/19 13:19:45;;;;;;;3.42;2.55;;;7.60;99.90;;;;;;5052999;28;20213;-72
2021/12/19 13:22:16;;;;;;;2.67;2.00;;;7.60;99.90;;;;;;5053374;28;20251;-73
2021/12/19 13:24:45;;;;;;;3.17;2.45;;;7.60;99.90;;;;;;5040903;28;20226;-72
2021/12/19 13:27:18;;;;;;;3.97;2.42;;;7.60;99.90;;;;;;5043962;28;20331;-73
2021/12/19 13:30:03;;;;;;;2.10;1.92;;;7.60;99.90;;;;;;5049327;28;20228;-73
2021/12/19 13:32:34;;;;;;;2.80;1.80;;;7.60;99.90;;;;;;5055488;28;20808;-73
2021/12/19 13:35:06;;;;;;;2.70;2.50;;;7.60;99.90;;;;;;5041510;28;20635;-72
2021/12/19 13:37:48;;;;;;;2.72;2.40;;;7.60;99.90;;;;;;5036054;28;20217;-72
2021/12/19 13:40:16;;;;;;;4.05;1.95;;;7.60;99.90;;;;;;5057429;28;20786;-72
2021/12/19 13:42:52;;;;;;;3.58;2.35;;;7.60;99.90;;;;;;5032883;28;20234;-73
2021/12/19 13:45:41;;;;;;;2.85;2.22;;;7.60;99.90;;;;;;5056620;28;20208;-73
2021/12/19 13:48:14;;;;;;;3.42;2.30;;;7.60;99.90;;;;;;5046040;28;20659;-72
2021/12/19 13:50:46;;;;;;;3.42;2.33;;;7.60;99.90;;;;;;5039468;28;20227;-72
2021/12/19 13:53:16;;;;;;;2.38;1.60;;;7.60;99.90;;;;;;5043818;28;20193;-72
2021/12/19 13:55:49;;;;;;;2.47;2.28;;;7.60;99.90;;;;;;5019182;28;20207;-72
2021/12/19 13:58:21;;;;;;;3.35;2.35;;;7.60;99.90;;;;;;5038389;28;20190;-72
2021/12/19 14:00:52;;;;;;;3.85;2.55;;;7.60;99.90;;;;;;5033692;28;20223;-72
2021/12/19 14:03:38;;;;;;;2.95;2.00;;;7.60;99.90;;;;;;5035897;28;20908;-72
2021/12/19 14:06:07;;;;;;;2.97;2.60;;;7.60;99.90;;;;;;5066057;28;20217;-71
2021/12/19 14:08:37;;;;;;;2.78;2.22;;;7.60;99.90;;;;;;5035061;28;20217;-72
2021/12/19 14:11:18;;;;;;;2.58;2.05;;;7.60;99.90;;;;;;5060920;28;20243;-72
2021/12/19 14:14:03;;;;;;;4.40;2.70;;;7.60;99.90;;;;;;5041015;28;20227;-72
2021/12/19 14:16:41;;;;;;;3.30;2.80;;;7.60;99.90;;;;;;5036188;28;20612;-72
2021/12/19 14:19:17;;;;;;;4.60;2.30;;;7.60;99.90;;;;;;5053239;28;20218;-72